Time;durP1;ratioP1;P1;durP2;ratioP2;P2;SDS_P1;SDS_P2;PMS_P1;PMS_P2;Temp;Humidity;BMP_temperature;BMP_pressure;BME280_temperature;BME280_humidity;BME280_pressure;Samples;Min_cycle;Max_cycle;Signal;HPM_P1;HPM_P2
2023/01/31 00:01:20;;;;;;;56.15;10.68;;;;;;;1.31;100.00;102374.84;5114261;28;20094;-55
2023/01/31 00:03:47;;;;;;;55.92;10.32;;;;;;;1.28;100.00;102380.53;5112945;28;20075;-54
2023/01/31 00:06:14;;;;;;;66.88;10.95;;;;;;;1.31;100.00;102385.88;5114048;28;20020;-55
2023/01/31 00:08:39;;;;;;;54.17;9.45;;;;;;;1.28;100.00;102379.66;5113811;28;20084;-55
2023/01/31 00:11:05;;;;;;;53.05;10.48;;;;;;;1.26;100.00;102379.47;5113286;28;20032;-54
2023/01/31 00:13:30;;;;;;;52.63;10.63;;;;;;;1.19;100.00;102389.84;5113532;28;20035;-55
2023/01/31 00:15:56;;;;;;;63.42;10.90;;;;;;;1.18;100.00;102395.66;5114062;28;20035;-54
2023/01/31 00:18:22;;;;;;;56.40;10.60;;;;;;;1.17;100.00;102393.88;5113174;28;20152;-54
2023/01/31 00:20:47;;;;;;;67.57;10.70;;;;;;;1.10;100.00;102400.03;5113526;28;20478;-54
2023/01/31 00:23:12;;;;;;;57.28;11.20;;;;;;;1.11;100.00;102400.91;5113753;28;20038;-54
2023/01/31 00:25:38;;;;;;;57.67;10.38;;;;;;;1.10;100.00;102404.22;5112616;28;20057;-55
2023/01/31 00:28:03;;;;;;;67.65;11.70;;;;;;;1.07;100.00;102414.09;5114056;28;20036;-55
2023/01/31 00:30:28;;;;;;;56.03;10.07;;;;;;;1.05;100.00;102410.53;5113424;28;20439;-56
2023/01/31 00:32:54;;;;;;;56.28;11.35;;;;;;;1.01;100.00;102414.41;5112675;28;20137;-54
2023/01/31 00:35:19;;;;;;;53.90;11.48;;;;;;;1.00;100.00;102414.28;5113704;28;20049;-54
2023/01/31 00:37:44;;;;;;;59.28;10.55;;;;;;;0.95;100.00;102409.66;5113220;28;20026;-55
2023/01/31 00:40:10;;;;;;;66.90;11.23;;;;;;;0.91;100.00;102399.97;5112639;28;20020;-56
2023/01/31 00:42:35;;;;;;;61.83;10.32;;;;;;;0.90;100.00;102397.28;5113134;28;20441;-55
2023/01/31 00:45:01;;;;;;;63.97;10.20;;;;;;;0.84;100.00;102395.06;5113587;28;20023;-55
2023/01/31 00:47:26;;;;;;;65.03;11.30;;;;;;;0.80;100.00;102392.97;5112245;28;20035;-55
2023/01/31 00:49:51;;;;;;;62.35;11.60;;;;;;;0.78;100.00;102389.41;5113323;28;20027;-56
2023/01/31 00:52:17;;;;;;;54.80;11.45;;;;;;;0.76;100.00;102380.75;5113357;28;20056;-54
2023/01/31 00:54:42;;;;;;;61.03;11.35;;;;;;;0.79;100.00;102392.09;5112117;28;20032;-54
2023/01/31 00:57:07;;;;;;;57.67;11.73;;;;;;;0.72;100.00;102393.91;5113536;28;20477;-55
2023/01/31 00:59:32;;;;;;;62.35;11.48;;;;;;;0.70;100.00;102387.78;5112982;28;20027;-54
2023/01/31 01:01:58;;;;;;;65.75;12.65;;;;;;;0.68;100.00;102389.31;5112672;28;20102;-55
2023/01/31 01:04:23;;;;;;;58.53;11.55;;;;;;;0.66;100.00;102384.09;5113115;28;20048;-55
2023/01/31 01:06:49;;;;;;;66.57;12.43;;;;;;;0.65;100.00;102388.25;5112940;28;20023;-54
2023/01/31 01:09:15;;;;;;;59.13;12.20;;;;;;;0.62;100.00;102382.91;5112560;28;20024;-55
2023/01/31 01:11:40;;;;;;;67.88;11.45;;;;;;;0.64;100.00;102377.97;5112830;28;20028;-55
2023/01/31 01:14:06;;;;;;;68.93;12.13;;;;;;;0.70;100.00;102380.16;5112597;28;20035;-55
2023/01/31 01:16:34;;;;;;;54.40;12.25;;;;;;;0.67;100.00;102362.13;5112745;28;20112;-55
2023/01/31 01:19:02;;;;;;;58.45;12.65;;;;;;;0.69;100.00;102364.06;5113033;28;20028;-54
2023/01/31 01:21:30;;;;;;;55.60;14.25;;;;;;;0.72;100.00;102358.38;5112115;28;20382;-56
2023/01/31 01:23:58;;;;;;;60.20;14.07;;;;;;;0.77;100.00;102347.03;5112994;28;20031;-55
2023/01/31 01:26:27;;;;;;;78.43;15.20;;;;;;;0.80;100.00;102342.22;5113246;28;20020;-55
2023/01/31 01:28:54;;;;;;;68.88;15.15;;;;;;;0.75;100.00;102344.34;5112279;28;20024;-55
2023/01/31 01:31:20;;;;;;;80.05;15.55;;;;;;;0.77;100.00;102344.47;5113082;28;20110;-55
2023/01/31 01:33:46;;;;;;;83.90;16.33;;;;;;;0.77;100.00;102342.81;5112696;28;20131;-55
2023/01/31 01:36:16;;;;;;;64.20;15.90;;;;;;;0.74;100.00;102342.53;5112094;28;20489;-56
2023/01/31 01:38:42;;;;;;;60.15;15.40;;;;;;;0.73;100.00;102348.38;5112807;28;20059;-55
2023/01/31 01:41:08;;;;;;;69.85;16.23;;;;;;;0.74;100.00;102342.53;5112845;28;20024;-55
2023/01/31 01:43:38;;;;;;;73.70;16.55;;;;;;;0.75;100.00;102348.50;5111957;28;20070;-55
2023/01/31 01:46:03;;;;;;;65.43;16.50;;;;;;;0.73;100.00;102343.28;5112976;28;20085;-54
2023/01/31 01:48:29;;;;;;;74.07;16.98;;;;;;;0.73;100.00;102334.81;5112640;28;20027;-55
2023/01/31 01:50:54;;;;;;;66.45;16.27;;;;;;;0.75;100.00;102339.25;5111963;28;20070;-55
2023/01/31 01:53:23;;;;;;;61.03;17.95;;;;;;;0.70;100.00;102337.03;5112708;28;20023;-55
2023/01/31 01:55:54;;;;;;;66.40;18.10;;;;;;;0.70;100.00;102337.03;5112451;28;20023;-54
2023/01/31 01:58:32;;;;;;;67.53;18.25;;;;;;;0.68;100.00;102334.34;5111979;28;20387;-54
2023/01/31 02:00:58;;;;;;;72.80;18.10;;;;;;;0.70;100.00;102330.34;5112777;28;20037;-54
2023/01/31 02:03:24;;;;;;;73.00;19.80;;;;;;;0.74;100.00;102331.53;5111680;28;20489;-55
2023/01/31 02:05:59;;;;;;;68.50;20.20;;;;;;;0.76;100.00;102335.06;5114868;28;20038;-55
2023/01/31 02:08:27;;;;;;;76.32;20.70;;;;;;;0.71;100.00;102337.19;5116505;28;20038;-56
2023/01/31 02:11:00;;;;;;;85.28;20.88;;;;;;;0.68;100.00;102347.03;5115627;28;20020;-55
2023/01/31 02:13:27;;;;;;;85.70;23.55;;;;;;;0.73;100.00;102342.41;5116025;28;20089;-55
2023/01/31 02:15:52;;;;;;;75.90;22.17;;;;;;;0.71;100.00;102342.28;5116248;28;20073;-55
2023/01/31 02:18:21;;;;;;;78.35;21.85;;;;;;;0.68;100.00;102346.16;5115542;28;20019;-54
2023/01/31 02:20:58;;;;;;;76.70;23.27;;;;;;;0.72;100.00;102348.22;5115940;28;20073;-55
2023/01/31 02:23:54;;;;;;;89.45;24.63;;;;;;;0.72;100.00;102348.22;5116285;28;20038;-54
2023/01/31 02:26:40;;;;;;;83.93;23.42;;;;;;;0.73;100.00;102350.03;5115109;28;20402;-54
2023/01/31 02:29:33;;;;;;;90.47;24.35;;;;;;;0.77;100.00;102368.19;5116141;28;20077;-55
2023/01/31 02:32:32;;;;;;;87.82;24.27;;;;;;;0.82;100.00;102358.50;5115324;28;20019;-56
2023/01/31 02:35:32;;;;;;;97.35;25.45;;;;;;;0.88;100.00;102348.00;5115782;28;20383;-55
2023/01/31 02:38:29;;;;;;;95.97;26.10;;;;;;;0.95;100.00;102351.25;5084126;28;20044;-55
2023/01/31 02:41:12;;;;;;;97.90;26.07;;;;;;;1.00;100.00;102356.78;5115790;28;20031;-54
2023/01/31 02:46:41;;;;;;;86.88;25.15;;;;;;;1.05;100.00;102331.81;5114920;28;20084;-54
2023/01/31 02:49:33;;;;;;;92.10;25.73;;;;;;;1.05;100.00;102334.34;5115754;28;20031;-54
2023/01/31 02:52:16;;;;;;;87.35;25.90;;;;;;;1.08;100.00;102343.13;5115779;28;20016;-55
2023/01/31 02:57:42;;;;;;;100.40;27.52;;;;;;;1.13;100.00;102338.47;5115391;28;20461;-55
2023/01/31 03:00:09;;;;;;;86.55;26.35;;;;;;;1.14;100.00;102340.28;5114625;28;20455;-55
2023/01/31 03:02:34;;;;;;;110.03;27.88;;;;;;;1.18;100.00;102344.88;5115167;28;20028;-55
2023/01/31 03:04:59;;;;;;;94.53;28.45;;;;;;;1.20;100.00;102339.94;5115196;28;20161;-55
2023/01/31 03:07:32;;;;;;;85.05;27.00;;;;;;;1.19;100.00;102340.69;5114568;28;20390;-55
2023/01/31 03:10:16;;;;;;;97.28;28.95;;;;;;;1.18;100.00;102334.72;5115292;28;20019;-55
2023/01/31 03:13:06;;;;;;;97.38;28.65;;;;;;;1.18;100.00;102321.13;5114968;28;20027;-55
2023/01/31 03:18:43;;;;;;;102.43;31.52;;;;;;;1.15;100.00;102337.00;5114728;28;20452;-55
2023/01/31 03:21:15;;;;;;;102.60;31.45;;;;;;;1.17;100.00;102332.03;5114171;28;20464;-55
2023/01/31 03:23:42;;;;;;;109.65;33.08;;;;;;;1.18;100.00;102331.31;5114845;28;20111;-54
2023/01/31 03:26:08;;;;;;;;;;;;;;;1.22;100.00;102329.16;5115667;28;20028;-56
2023/01/31 03:28:35;;;;;;;110.13;33.85;;;;;;;1.19;100.00;102322.91;5113688;28;20282;-55
2023/01/31 03:31:17;;;;;;;102.78;33.83;;;;;;;1.13;100.00;102320.72;5114837;28;20024;-55
2023/01/31 03:33:56;;;;;;;115.63;35.03;;;;;;;1.12;100.00;102316.38;5114458;28;20027;-54
2023/01/31 03:36:43;;;;;;;113.22;35.65;;;;;;;1.10;100.00;102318.78;5113954;28;20019;-55
2023/01/31 03:39:22;;;;;;;117.75;37.83;;;;;;;1.13;100.00;102323.25;5114558;28;20085;-55
2023/01/31 03:42:06;;;;;;;126.18;38.80;;;;;;;1.14;100.00;102309.81;5113709;28;20034;-55
2023/01/31 03:44:50;;;;;;;118.93;37.88;;;;;;;1.14;100.00;102314.88;5114123;28;20455;-54
2023/01/31 03:47:22;;;;;;;124.30;39.45;;;;;;;1.15;100.00;102309.06;5108821;28;20476;-56
2023/01/31 03:49:50;;;;;;;103.15;39.67;;;;;;;1.19;100.00;102300.03;5092978;28;20386;-56
2023/01/31 03:52:22;;;;;;;132.93;40.92;;;;;;;1.15;100.00;102298.91;5094123;28;20039;-56
2023/01/31 03:54:53;;;;;;;117.20;41.20;;;;;;;1.17;100.00;102299.91;5093849;28;20107;-56
2023/01/31 03:57:33;;;;;;;116.78;40.85;;;;;;;1.20;100.00;102300.22;5093383;28;20036;-56
2023/01/31 04:00:02;;;;;;;137.13;41.38;;;;;;;1.22;100.00;102288.53;5093864;28;20077;-56
2023/01/31 04:02:33;;;;;;;122.53;42.13;;;;;;;1.23;100.00;102292.84;5093607;28;20030;-56
2023/01/31 04:05:07;;;;;;;116.35;41.72;;;;;;;1.27;100.00;102287.28;5092900;28;20392;-56
2023/01/31 04:07:33;;;;;;;116.57;43.10;;;;;;;1.29;100.00;102284.88;5093215;28;20081;-56
2023/01/31 04:09:58;;;;;;;126.07;44.22;;;;;;;1.31;100.00;102289.34;5093110;28;20073;-56
2023/01/31 04:12:24;;;;;;;141.75;44.00;;;;;;;1.30;100.00;102292.66;5093538;28;20024;-56
2023/01/31 04:14:49;;;;;;;129.40;45.50;;;;;;;1.31;100.00;102296.97;5093182;28;20028;-56
2023/01/31 04:17:14;;;;;;;127.28;45.70;;;;;;;1.27;100.00;102282.22;5092890;28;20099;-55
2023/01/31 04:19:39;;;;;;;120.03;43.13;;;;;;;1.27;100.00;102289.84;5093306;28;20085;-55
2023/01/31 04:22:05;;;;;;;131.90;47.00;;;;;;;1.31;100.00;102283.38;5093579;28;20061;-56
2023/01/31 04:24:30;;;;;;;119.10;45.42;;;;;;;1.30;100.00;102290.13;5092274;28;20093;-55
2023/01/31 04:26:55;;;;;;;146.27;49.05;;;;;;;1.30;100.00;102287.59;5093453;28;20016;-55
2023/01/31 04:29:20;;;;;;;119.60;45.53;;;;;;;1.28;100.00;102281.47;5093228;28;20147;-56
2023/01/31 04:31:46;;;;;;;137.43;46.10;;;;;;;1.30;100.00;102286.69;5092370;28;20024;-55
2023/01/31 04:34:11;;;;;;;141.60;48.35;;;;;;;1.31;100.00;102280.84;5093418;28;20372;-56
2023/01/31 04:36:37;;;;;;;130.68;47.25;;;;;;;1.32;100.00;102275.03;5093024;28;20032;-56
2023/01/31 04:39:02;;;;;;;124.45;45.75;;;;;;;1.31;100.00;102275.78;5092474;28;20081;-56
2023/01/31 04:41:28;;;;;;;124.60;45.60;;;;;;;1.26;100.00;102280.41;5093028;28;20028;-56
2023/01/31 04:43:53;;;;;;;134.25;47.10;;;;;;;1.25;100.00;102278.66;5093072;28;20024;-55
2023/01/31 04:46:18;;;;;;;133.57;47.33;;;;;;;1.28;100.00;102281.47;5092523;28;20398;-55
2023/01/31 04:48:43;;;;;;;136.32;47.13;;;;;;;1.27;100.00;102277.13;5092875;28;20032;-55
2023/01/31 04:51:09;;;;;;;132.77;47.00;;;;;;;1.26;100.00;102271.91;5093230;28;20149;-56
2023/01/31 04:53:35;;;;;;;130.60;47.05;;;;;;;1.27;100.00;102263.56;5091916;28;20092;-56
2023/01/31 04:56:01;;;;;;;134.82;47.75;;;;;;;1.29;100.00;102255.31;5092928;28;20049;-54
2023/01/31 04:58:26;;;;;;;133.35;47.42;;;;;;;1.29;100.00;102246.78;5092562;28;20028;-55
2023/01/31 05:00:53;;;;;;;127.82;46.88;;;;;;;1.29;100.00;102245.16;5092015;28;20031;-55
2023/01/31 05:03:18;;;;;;;127.63;46.50;;;;;;;1.29;100.00;102250.25;5092854;28;20078;-56
2023/01/31 05:05:43;;;;;;;129.52;47.10;;;;;;;1.31;100.00;102243.63;5092767;28;20466;-55
2023/01/31 05:08:09;;;;;;;121.75;46.85;;;;;;;1.30;100.00;102246.94;5092056;28;20038;-54
2023/01/31 05:10:35;;;;;;;123.43;47.25;;;;;;;1.36;100.00;102243.16;5092561;28;20032;-55
2023/01/31 05:13:00;;;;;;;142.20;47.40;;;;;;;1.38;100.00;102236.56;5092703;28;20023;-55
2023/01/31 05:15:25;;;;;;;119.95;46.05;;;;;;;1.39;100.00;102243.44;5092045;28;20028;-55
2023/01/31 05:18:03;;;;;;;143.73;47.85;;;;;;;1.39;100.00;102245.97;5092899;28;20055;-56
2023/01/31 05:20:35;;;;;;;122.72;46.42;;;;;;;1.37;100.00;102240.75;5091845;28;20027;-56
2023/01/31 05:23:01;;;;;;;129.45;44.40;;;;;;;1.39;100.00;102234.16;5092985;28;20024;-55
2023/01/31 05:25:26;;;;;;;124.10;46.15;;;;;;;1.39;100.00;102229.06;5092475;28;20365;-56
2023/01/31 05:27:52;;;;;;;122.32;44.95;;;;;;;1.42;100.00;102231.91;5091859;28;20028;-55
2023/01/31 05:30:18;;;;;;;129.85;48.03;;;;;;;1.43;100.00;102227.69;5092847;28;20020;-56
2023/01/31 05:32:45;;;;;;;119.63;45.38;;;;;;;1.46;100.00;102233.94;5092298;28;20475;-55
2023/01/31 05:35:11;;;;;;;121.63;45.35;;;;;;;1.47;100.00;102239.91;5091880;28;20028;-55
2023/01/31 05:37:37;;;;;;;114.85;44.85;;;;;;;1.48;100.00;102232.47;5092101;28;20537;-55
2023/01/31 05:40:02;;;;;;;117.90;43.50;;;;;;;1.48;100.00;102227.38;5093699;28;20024;-56
2023/01/31 05:42:28;;;;;;;111.20;43.58;;;;;;;1.48;100.00;102208.69;5095604;28;20028;-56
2023/01/31 05:44:53;;;;;;;107.25;42.35;;;;;;;1.47;100.00;102212.88;5096603;28;20035;-56
2023/01/31 05:47:18;;;;;;;110.78;43.35;;;;;;;1.51;100.00;102226.75;5096357;28;20468;-56
2023/01/31 05:49:44;;;;;;;113.88;42.60;;;;;;;1.51;100.00;102221.66;5095551;28;20028;-55
2023/01/31 05:52:09;;;;;;;114.25;42.03;;;;;;;1.51;100.00;102215.69;5096525;28;20474;-56
2023/01/31 05:54:34;;;;;;;112.68;43.25;;;;;;;1.51;100.00;102213.13;5095888;28;20038;-56
2023/01/31 05:56:59;;;;;;;107.03;40.80;;;;;;;1.54;100.00;102210.88;5095666;28;20468;-56
2023/01/31 05:59:25;;;;;;;107.15;40.83;;;;;;;1.56;100.00;102214.44;5096378;28;20056;-55
2023/01/31 06:01:50;;;;;;;103.57;39.17;;;;;;;1.57;100.00;102212.03;5096196;28;20023;-56
2023/01/31 06:04:16;;;;;;;103.10;39.90;;;;;;;1.57;100.00;102219.66;5095005;28;20419;-56
2023/01/31 06:06:41;;;;;;;104.00;38.35;;;;;;;1.61;100.00;102228.44;5095740;28;20020;-55
2023/01/31 06:09:07;;;;;;;112.07;39.55;;;;;;;1.63;100.00;102227.81;5095884;28;20069;-56
2023/01/31 06:11:32;;;;;;;106.80;38.60;;;;;;;1.64;100.00;102223.66;5094791;28;20048;-56
2023/01/31 06:13:58;;;;;;;106.28;37.83;;;;;;;1.67;100.00;102220.47;5096012;28;20085;-56
2023/01/31 06:16:24;;;;;;;110.25;36.85;;;;;;;1.68;100.00;102212.06;5095137;28;20032;-56
2023/01/31 06:18:49;;;;;;;96.40;36.72;;;;;;;1.72;100.00;102211.59;5095551;28;20081;-55
2023/01/31 06:21:15;;;;;;;111.30;36.25;;;;;;;1.72;100.00;102215.03;5095761;28;20060;-56
2023/01/31 06:23:44;;;;;;;98.20;35.75;;;;;;;1.73;100.00;102204.09;5094623;28;20032;-56
2023/01/31 06:26:10;;;;;;;98.95;34.55;;;;;;;1.76;100.00;102208.56;5095535;28;20016;-55
2023/01/31 06:28:36;;;;;;;108.13;35.40;;;;;;;1.77;100.00;102212.88;5095357;28;20047;-56
2023/01/31 06:31:09;;;;;;;109.65;34.17;;;;;;;1.80;100.00;102206.41;5094924;28;20028;-56
2023/01/31 06:33:34;;;;;;;86.10;33.58;;;;;;;1.83;100.00;102210.00;5095273;28;20023;-55
2023/01/31 06:36:00;;;;;;;96.50;33.45;;;;;;;1.83;100.00;102210.88;5095586;28;20016;-55
2023/01/31 06:38:26;;;;;;;84.05;33.80;;;;;;;1.83;100.00;102204.91;5094553;28;20039;-56
2023/01/31 06:40:51;;;;;;;93.50;32.83;;;;;;;1.84;100.00;102196.53;5095550;28;20027;-56
2023/01/31 06:43:16;;;;;;;89.35;33.05;;;;;;;1.86;100.00;102198.44;5095587;28;20020;-55
2023/01/31 06:45:43;;;;;;;103.88;35.08;;;;;;;1.89;100.00;102198.69;5094345;28;20352;-55
2023/01/31 06:48:09;;;;;;;91.32;31.00;;;;;;;1.90;100.00;102192.84;5095226;28;20028;-56
2023/01/31 06:50:35;;;;;;;86.30;33.88;;;;;;;1.89;100.00;102185.97;5094738;28;20029;-56
2023/01/31 06:53:00;;;;;;;87.30;32.38;;;;;;;1.90;100.00;102182.69;5094316;28;20032;-56
2023/01/31 06:55:25;;;;;;;88.63;29.85;;;;;;;1.92;100.00;102183.69;5094974;28;20427;-56
2023/01/31 06:57:50;;;;;;;85.00;29.75;;;;;;;1.95;100.00;102193.22;5095247;28;20042;-56
2023/01/31 07:00:17;;;;;;;91.95;29.92;;;;;;;1.95;100.00;102188.16;5094296;28;20047;-55
2023/01/31 07:02:43;;;;;;;85.88;29.63;;;;;;;2.01;100.00;102195.44;5094618;28;20032;-55
2023/01/31 07:05:08;;;;;;;77.97;29.67;;;;;;;2.02;100.00;102194.69;5094647;28;20043;-56
2023/01/31 07:07:34;;;;;;;89.13;28.55;;;;;;;2.06;100.00;102179.78;5093587;28;20109;-55
2023/01/31 07:09:59;;;;;;;88.95;29.50;;;;;;;2.08;100.00;102182.47;5094795;28;20414;-55
2023/01/31 07:12:25;;;;;;;78.18;27.67;;;;;;;2.12;100.00;102187.06;5094627;28;20020;-56
2023/01/31 07:14:50;;;;;;;69.15;26.50;;;;;;;2.16;100.00;102175.50;5093820;28;20418;-56
2023/01/31 07:17:16;;;;;;;83.18;28.20;;;;;;;2.18;100.00;102187.56;5094650;28;20028;-56
2023/01/31 07:19:42;;;;;;;84.95;27.58;;;;;;;2.19;100.00;102176.66;5093607;28;20028;-55
2023/01/31 07:22:07;;;;;;;76.60;26.17;;;;;;;2.22;100.00;102179.47;5094501;28;20056;-55
2023/01/31 07:24:32;;;;;;;79.65;25.70;;;;;;;2.28;100.00;102172.34;5094337;28;20028;-56
2023/01/31 07:26:59;;;;;;;73.85;25.88;;;;;;;2.31;100.00;102169.16;5093900;28;20020;-56
2023/01/31 07:29:24;;;;;;;66.97;23.75;;;;;;;2.40;100.00;102147.06;5094475;28;20020;-55
2023/01/31 07:31:50;;;;;;;85.82;25.27;;;;;;;2.45;100.00;102175.41;5094183;28;20020;-55
2023/01/31 07:34:15;;;;;;;72.10;24.13;;;;;;;2.48;100.00;102165.50;5093695;28;20051;-55
2023/01/31 07:36:40;;;;;;;75.43;24.30;;;;;;;2.49;100.00;102164.72;5093781;28;20065;-55
2023/01/31 07:39:06;;;;;;;71.30;23.80;;;;;;;2.49;100.00;102177.44;5094389;28;20105;-55
2023/01/31 07:41:31;;;;;;;72.38;24.35;;;;;;;2.49;100.00;102161.28;5093223;28;20032;-56
2023/01/31 07:43:57;;;;;;;73.50;23.30;;;;;;;2.50;100.00;102160.53;5094102;28;20073;-55
2023/01/31 07:46:22;;;;;;;78.10;25.00;;;;;;;2.51;100.00;102169.97;5094066;28;20016;-56
2023/01/31 07:48:48;;;;;;;62.63;22.13;;;;;;;2.52;100.00;102161.53;5092778;28;20046;-55
2023/01/31 07:51:13;;;;;;;71.03;22.40;;;;;;;2.55;100.00;102149.09;5094101;28;20422;-56
2023/01/31 07:53:41;;;;;;;68.47;21.75;;;;;;;2.55;100.00;102147.41;5093783;28;20016;-56
2023/01/31 07:56:17;;;;;;;66.75;22.45;;;;;;;2.57;100.00;102145.00;5093110;28;20487;-56
2023/01/31 07:58:44;;;;;;;68.32;22.52;;;;;;;2.58;100.00;102137.50;5093729;28;20027;-56
2023/01/31 08:04:01;;;;;;;71.68;21.80;;;;;;;2.64;100.00;102138.00;5092538;28;20158;-56
2023/01/31 08:06:29;;;;;;;62.65;21.50;;;;;;;2.68;100.00;102143.34;5093612;28;20107;-55
2023/01/31 08:08:55;;;;;;;55.70;21.38;;;;;;;2.70;100.00;102139.25;5093040;28;20031;-56
2023/01/31 08:11:21;;;;;;;59.28;21.13;;;;;;;2.73;100.00;102139.53;5093527;28;20028;-55
2023/01/31 08:13:46;;;;;;;71.15;21.38;;;;;;;2.75;100.00;102131.25;5093389;28;20349;-55
2023/01/31 08:16:12;;;;;;;63.38;21.50;;;;;;;2.76;100.00;102119.41;5092723;28;20028;-55
2023/01/31 08:18:38;;;;;;;60.80;21.27;;;;;;;2.78;100.00;102128.06;5093133;28;20077;-56
2023/01/31 08:21:04;;;;;;;66.15;21.98;;;;;;;2.81;100.00;102130.84;5093519;28;20050;-55
2023/01/31 08:23:30;;;;;;;75.00;20.88;;;;;;;2.87;100.00;102133.91;5092482;28;20027;-55
2023/01/31 08:26:11;;;;;;;67.85;21.23;;;;;;;2.91;100.00;102123.19;5093549;28;20024;-54
2023/01/31 08:28:38;;;;;;;63.83;20.77;;;;;;;2.94;100.00;102122.56;5093017;28;20028;-55
2023/01/31 08:31:04;;;;;;;67.20;19.35;;;;;;;3.00;100.00;102122.19;5092360;28;20020;-56
2023/01/31 08:33:29;;;;;;;57.85;20.70;;;;;;;3.02;100.00;102115.53;5093111;28;20027;-55
2023/01/31 08:35:55;;;;;;;53.60;18.15;;;;;;;3.07;100.00;102119.34;5093342;28;20024;-55
2023/01/31 08:38:20;;;;;;;59.38;20.80;;;;;;;3.11;100.00;102116.28;5092493;28;20027;-56
2023/01/31 08:40:46;;;;;;;68.60;20.67;;;;;;;3.15;100.00;102097.94;5092911;28;20479;-55
2023/01/31 08:43:11;;;;;;;52.00;18.83;;;;;;;3.21;100.00;102107.72;5093030;28;20387;-55
2023/01/31 08:45:36;;;;;;;61.88;19.83;;;;;;;3.23;100.00;102101.97;5091978;28;20496;-55
2023/01/31 08:48:02;;;;;;;60.25;19.30;;;;;;;3.28;100.00;102100.69;5092988;28;20111;-54
2023/01/31 08:50:30;;;;;;;63.63;19.80;;;;;;;3.32;100.00;102103.47;5092829;28;20051;-54
2023/01/31 08:53:00;;;;;;;69.18;21.25;;;;;;;3.34;100.00;102099.41;5092259;28;20066;-53
2023/01/31 08:55:27;;;;;;;66.80;20.65;;;;;;;3.36;100.00;102092.78;5092587;28;20432;-56
2023/01/31 08:57:52;;;;;;;61.20;18.50;;;;;;;3.40;100.00;102085.47;5092835;28;20024;-53
2023/01/31 09:00:19;;;;;;;63.92;19.30;;;;;;;3.45;100.00;102083.28;5092332;28;20334;-52
2023/01/31 09:02:50;;;;;;;60.35;19.73;;;;;;;3.53;100.00;102092.41;5092358;28;20468;-53
2023/01/31 09:05:16;;;;;;;64.75;20.00;;;;;;;3.57;100.00;102081.69;5091896;28;20036;-54
2023/01/31 09:07:41;;;;;;;62.65;17.58;;;;;;;3.60;100.00;102084.50;5092475;28;20426;-54
2023/01/31 09:10:06;;;;;;;59.65;17.92;;;;;;;3.60;100.00;102084.50;5092815;28;20423;-55
2023/01/31 09:12:33;;;;;;;57.75;18.45;;;;;;;3.61;100.00;102070.94;5091557;28;20054;-55
2023/01/31 09:14:58;;;;;;;55.72;17.85;;;;;;;3.61;100.00;102072.63;5094002;28;20027;-55
2023/01/31 09:17:23;;;;;;;71.70;17.85;;;;;;;3.62;100.00;102085.47;5097269;28;20028;-55
2023/01/31 09:19:49;;;;;;;52.60;17.58;;;;;;;3.66;100.00;102073.00;5095964;28;20115;-55
2023/01/31 09:22:14;;;;;;;54.60;17.30;;;;;;;3.70;100.00;102075.00;5096885;28;20101;-55
2023/01/31 09:24:40;;;;;;;62.65;17.90;;;;;;;3.78;100.00;102059.53;5096574;28;20039;-55
2023/01/31 09:27:05;;;;;;;64.03;17.63;;;;;;;3.92;100.00;102052.91;5095831;28;20026;-56
2023/01/31 09:29:30;;;;;;;60.38;17.77;;;;;;;4.10;100.00;102052.53;5096491;28;20375;-55
2023/01/31 09:31:56;;;;;;;52.75;16.88;;;;;;;4.16;100.00;102063.19;5096766;28;20490;-54
2023/01/31 09:34:21;;;;;;;61.25;17.27;;;;;;;4.28;100.00;102073.44;5096054;28;20059;-55
2023/01/31 09:36:47;;;;;;;51.30;16.95;;;;;;;4.33;100.00;102053.38;5096355;28;20103;-55
2023/01/31 09:39:13;;;;;;;58.05;17.75;;;;;;;4.37;100.00;102073.25;5096577;28;20090;-55
2023/01/31 09:41:46;;;;;;;48.47;16.40;;;;;;;4.48;100.00;102077.47;5095371;28;20055;-55
2023/01/31 09:44:11;;;;;;;53.83;16.27;;;;;;;4.52;100.00;102064.16;5096609;28;20028;-55
2023/01/31 09:47:08;;;;;;;60.60;16.03;;;;;;;4.65;100.00;102060.84;5095973;28;20460;-55
2023/01/31 09:49:47;;;;;;;44.58;15.30;;;;;;;4.82;100.00;102062.06;5077554;28;20301;-56
2023/01/31 09:52:12;;;;;;;54.92;16.20;;;;;;;4.94;100.00;102070.63;5096212;28;20043;-55
2023/01/31 09:54:39;;;;;;;53.05;16.00;;;;;;;5.02;100.00;102062.63;5095365;28;20016;-54
2023/01/31 09:57:20;;;;;;;53.73;15.10;;;;;;;5.06;100.00;102064.59;5096290;28;20027;-55
2023/01/31 10:00:13;;;;;;;59.45;15.98;;;;;;;5.07;100.00;102069.84;5095872;28;20028;-54
2023/01/31 10:03:23;;;;;;;62.35;16.88;;;;;;;5.01;100.00;102061.75;5094907;28;20016;-55
2023/01/31 10:06:20;;;;;;;56.83;15.32;;;;;;;4.88;100.00;102059.97;5013754;28;20510;-55
2023/01/31 10:08:55;;;;;;;51.55;15.98;;;;;;;4.77;100.00;102040.41;5012843;28;20057;-54
2023/01/31 10:11:27;;;;;;;48.20;16.73;;;;;;;4.76;100.00;102054.88;5078517;28;20039;-55
2023/01/31 10:14:03;;;;;;;48.40;16.52;;;;;;;4.84;100.00;102041.75;5095816;28;20403;-55
2023/01/31 10:16:43;;;;;;;52.53;18.73;;;;;;;4.93;100.00;102033.09;5094898;28;20102;-55
2023/01/31 10:19:14;;;;;;;47.53;19.73;;;;;;;5.02;100.00;102035.41;5095833;28;20375;-55
2023/01/31 10:21:50;;;;;;;62.83;21.90;;;;;;;5.07;100.00;102035.72;5095429;28;20444;-55
2023/01/31 10:24:22;;;;;;;63.67;24.65;;;;;;;5.05;100.00;102044.97;5094930;28;20471;-55
2023/01/31 10:26:51;;;;;;;52.40;23.67;;;;;;;4.95;100.00;102038.28;5094785;28;20496;-56
2023/01/31 10:29:27;;;;;;;64.45;25.45;;;;;;;4.91;100.00;102052.50;5095742;28;20042;-55
2023/01/31 10:31:59;;;;;;;68.93;26.88;;;;;;;4.88;100.00;102059.97;5094758;28;20025;-56
2023/01/31 10:34:33;;;;;;;67.20;29.23;;;;;;;4.87;100.00;102052.19;5095702;28;20035;-54
2023/01/31 10:37:11;;;;;;;67.57;27.95;;;;;;;4.88;100.00;102059.97;5094850;28;20035;-55
2023/01/31 10:39:48;;;;;;;64.18;29.52;;;;;;;4.93;100.00;102063.75;5095153;28;20035;-55
2023/01/31 10:42:25;;;;;;;67.30;32.55;;;;;;;4.93;100.00;102050.97;5095238;28;20024;-55
2023/01/31 10:45:08;;;;;;;76.15;33.50;;;;;;;4.98;100.00;102045.28;5094734;28;20089;-55
2023/01/31 10:47:46;;;;;;;76.68;35.92;;;;;;;5.01;100.00;102055.72;5094923;28;20039;-55
2023/01/31 10:50:26;;;;;;;81.00;34.35;;;;;;;5.05;100.00;102043.28;5095053;28;20391;-55
2023/01/31 10:52:58;;;;;;;80.97;35.30;;;;;;;5.08;100.00;102042.63;5094642;28;20103;-55
2023/01/31 10:55:48;;;;;;;89.22;38.90;;;;;;;5.11;100.00;102035.16;5095058;28;20509;-56
2023/01/31 10:58:16;;;;;;;81.47;38.35;;;;;;;5.13;100.00;102036.16;5094160;28;20472;-54
2023/01/31 11:00:43;;;;;;;77.57;37.80;;;;;;;5.18;100.00;102022.03;5094762;28;20032;-55
2023/01/31 11:03:12;;;;;;;85.45;39.42;;;;;;;5.27;100.00;102044.81;5094606;28;20028;-56
2023/01/31 11:05:45;;;;;;;86.57;38.53;;;;;;;5.34;100.00;102035.91;5094038;28;20034;-54
2023/01/31 11:08:34;;;;;;;85.78;38.38;;;;;;;5.41;100.00;102027.84;5094920;28;20473;-55
2023/01/31 11:11:08;;;;;;;90.97;43.08;;;;;;;5.41;100.00;102022.75;5094798;28;20024;-55
2023/01/31 11:13:34;;;;;;;87.28;40.53;;;;;;;5.44;100.00;102017.88;5093888;28;20016;-55
2023/01/31 11:16:01;;;;;;;86.70;38.70;;;;;;;5.45;100.00;102014.53;5094630;28;20422;-55
2023/01/31 11:18:57;;;;;;;78.72;39.28;;;;;;;5.54;100.00;102009.13;5094346;28;20074;-55
2023/01/31 11:21:27;;;;;;;79.32;38.53;;;;;;;5.51;100.00;102004.69;5077470;28;20043;-55
2023/01/31 11:24:03;;;;;;;71.45;37.42;;;;;;;5.55;100.00;101993.94;5094570;28;20074;-55
2023/01/31 11:26:40;;;;;;;79.50;36.80;;;;;;;5.63;100.00;101983.31;5093593;28;20020;-55
2023/01/31 11:29:19;;;;;;;81.88;38.70;;;;;;;5.62;100.00;101990.13;5094507;28;20024;-55